Time;durP1;ratioP1;P1;durP2;ratioP2;P2;SDS_P1;SDS_P2;PMS_P1;PMS_P2;Temp;Humidity;BMP_temperature;BMP_pressure;BME280_temperature;BME280_humidity;BME280_pressure;Samples;Min_cycle;Max_cycle;Signal;HPM_P1;HPM_P2
2024/01/29 00:01:42;;;;;;;10.87;8.57;;;3.50;99.90;;;;;;4974409;28;20271;-69
2024/01/29 00:04:08;;;;;;;10.60;8.73;;;3.40;99.90;;;;;;4993584;28;20465;-69
2024/01/29 00:06:33;;;;;;;11.80;8.10;;;3.50;99.90;;;;;;4993243;28;20952;-68
2024/01/29 00:08:59;;;;;;;9.27;8.30;;;3.50;99.90;;;;;;4984655;28;20200;-69
2024/01/29 00:11:25;;;;;;;9.43;7.73;;;3.50;99.90;;;;;;4972966;28;20267;-69
2024/01/29 00:13:50;;;;;;;8.47;7.53;;;3.50;99.90;;;;;;4973006;28;20267;-69
2024/01/29 00:16:16;;;;;;;8.00;7.20;;;3.40;99.90;;;;;;4973171;28;20592;-68
2024/01/29 00:18:42;;;;;;;10.10;7.70;;;3.40;99.90;;;;;;4972769;28;20223;-69
2024/01/29 00:21:07;;;;;;;9.07;6.70;;;3.30;99.90;;;;;;4973235;28;20192;-69
2024/01/29 00:23:33;;;;;;;7.20;6.30;;;3.30;99.90;;;;;;4972038;28;20564;-69
2024/01/29 00:25:58;;;;;;;7.80;7.00;;;3.40;99.90;;;;;;4973364;28;20640;-69
2024/01/29 00:28:24;;;;;;;6.70;5.80;;;3.40;99.90;;;;;;4968683;28;20800;-69
2024/01/29 00:30:49;;;;;;;9.27;6.80;;;3.30;99.90;;;;;;4972745;28;20186;-69
2024/01/29 00:33:15;;;;;;;8.83;7.10;;;3.30;99.90;;;;;;4967402;28;20259;-69
2024/01/29 00:35:40;;;;;;;7.80;6.90;;;3.30;99.90;;;;;;4954377;29;20279;-68
2024/01/29 00:38:06;;;;;;;7.67;6.07;;;3.30;99.90;;;;;;4953768;28;20165;-69
2024/01/29 00:40:33;;;;;;;8.90;7.67;;;3.30;99.90;;;;;;4970958;28;20188;-69
2024/01/29 00:42:59;;;;;;;6.90;6.20;;;3.30;99.90;;;;;;4970871;28;20655;-69
2024/01/29 00:45:25;;;;;;;6.37;5.77;;;3.30;99.90;;;;;;4970563;28;20470;-69
2024/01/29 00:47:50;;;;;;;6.07;5.53;;;3.30;99.90;;;;;;4966155;28;20452;-69
2024/01/29 00:50:16;;;;;;;6.47;5.87;;;3.30;99.90;;;;;;4972249;28;20558;-69
2024/01/29 00:52:41;;;;;;;8.07;6.17;;;3.30;99.40;;;;;;4974359;28;20642;-69
2024/01/29 00:55:07;;;;;;;6.90;6.30;;;3.40;96.50;;;;;;4984766;28;20204;-69
2024/01/29 00:57:32;;;;;;;7.17;5.70;;;3.40;80.70;;;;;;4965727;28;20559;-68
2024/01/29 00:59:58;;;;;;;5.87;5.27;;;3.40;64.70;;;;;;4971072;28;20453;-68
2024/01/29 01:02:23;;;;;;;8.83;6.27;;;3.50;61.70;;;;;;4972421;28;20184;-69
2024/01/29 01:04:49;;;;;;;6.80;5.97;;;3.50;56.60;;;;;;4972918;28;20242;-68
2024/01/29 01:07:15;;;;;;;6.80;6.10;;;3.50;57.70;;;;;;4971475;28;20315;-69
2024/01/29 01:09:40;;;;;;;6.80;6.10;;;3.50;53.80;;;;;;4972503;28;20204;-68
2024/01/29 01:12:06;;;;;;;5.57;5.03;;;3.50;56.00;;;;;;4972627;28;20172;-69
2024/01/29 01:14:31;;;;;;;6.77;6.07;;;3.40;51.30;;;;;;4972008;28;20180;-69
2024/01/29 01:16:57;;;;;;;5.80;5.30;;;3.40;37.70;;;;;;4973117;28;20199;-69
2024/01/29 01:19:23;;;;;;;8.20;6.23;;;3.50;29.80;;;;;;4970448;28;20168;-68
2024/01/29 01:21:48;;;;;;;7.17;5.47;;;3.50;18.00;;;;;;4971672;28;20192;-68
2024/01/29 01:24:14;;;;;;;6.83;6.13;;;3.60;17.70;;;;;;4966016;28;20188;-68
2024/01/29 01:26:39;;;;;;;5.87;5.27;;;3.60;17.50;;;;;;5017866;23;20247;-70
2024/01/29 01:29:05;;;;;;;10.63;5.93;;;3.60;13.10;;;;;;5017522;28;20206;-70
2024/01/29 01:31:30;;;;;;;8.20;5.47;;;3.60;15.20;;;;;;5007110;28;20187;-69
2024/01/29 01:33:56;;;;;;;7.10;5.40;;;3.60;9.50;;;;;;5000939;28;20184;-70
2024/01/29 01:36:22;;;;;;;5.53;5.03;;;3.60;6.50;;;;;;5007484;28;20612;-69
2024/01/29 01:38:48;;;;;;;7.07;5.07;;;3.60;7.10;;;;;;4995800;28;20194;-69
2024/01/29 01:41:13;;;;;;;5.80;5.30;;;3.60;6.20;;;;;;5001624;28;20257;-69
2024/01/29 01:43:39;;;;;;;6.20;5.00;;;3.60;5.30;;;;;;4994507;28;20218;-69
2024/01/29 01:46:05;;;;;;;5.43;4.90;;;3.60;1.00;;;;;;4994133;28;20203;-69
2024/01/29 01:48:34;;;;;;;7.17;4.87;;;3.60;1.60;;;;;;4998644;28;21069;-70
2024/01/29 01:51:01;;;;;;;6.70;4.80;;;3.70;1.00;;;;;;4992317;28;20608;-69
2024/01/29 01:53:31;;;;;;;5.50;4.93;;;3.60;1.00;;;;;;4999440;28;20478;-69
2024/01/29 01:55:58;;;;;;;5.10;4.67;;;3.60;1.00;;;;;;4991771;28;20516;-70
2024/01/29 01:58:24;;;;;;;5.43;4.87;;;3.60;1.00;;;;;;4991740;28;20958;-69
2024/01/29 02:00:50;;;;;;;5.20;4.70;;;3.60;1.00;;;;;;4993221;28;20450;-69
2024/01/29 02:03:16;;;;;;;4.73;4.20;;;3.60;1.00;;;;;;5003187;28;20442;-69
2024/01/29 02:05:42;;;;;;;5.17;4.67;;;3.60;1.00;;;;;;4989249;28;20199;-69
2024/01/29 02:08:07;;;;;;;5.93;4.37;;;3.60;1.00;;;;;;4998519;28;20505;-69
2024/01/29 02:10:34;;;;;;;5.23;4.73;;;3.60;1.00;;;;;;4987740;28;20211;-69
2024/01/29 02:13:00;;;;;;;6.30;5.03;;;3.60;1.00;;;;;;4991031;28;20214;-69
2024/01/29 02:15:25;;;;;;;4.53;4.17;;;3.60;1.00;;;;;;4985030;28;20450;-69
2024/01/29 02:17:51;;;;;;;4.60;4.03;;;3.60;1.00;;;;;;5010995;28;20187;-69
2024/01/29 02:20:17;;;;;;;4.70;4.30;;;3.60;1.00;;;;;;5007543;28;20191;-70
2024/01/29 02:22:44;;;;;;;6.23;4.40;;;3.60;1.00;;;;;;4999652;28;20267;-69
2024/01/29 02:25:10;;;;;;;7.03;5.07;;;3.60;1.00;;;;;;5003138;28;20426;-69
2024/01/29 02:27:36;;;;;;;5.40;4.60;;;3.50;1.00;;;;;;4990969;28;20825;-69
2024/01/29 02:30:01;;;;;;;5.60;4.47;;;3.50;1.00;;;;;;4986791;28;20279;-69
2024/01/29 02:32:27;;;;;;;5.93;5.33;;;3.50;1.00;;;;;;5001932;28;21016;-70
2024/01/29 02:34:52;;;;;;;5.10;4.60;;;3.40;1.00;;;;;;5003591;28;20218;-69
2024/01/29 02:37:18;;;;;;;4.50;4.10;;;3.40;1.00;;;;;;5003505;28;20203;-69
2024/01/29 02:39:43;;;;;;;4.83;4.13;;;3.50;1.00;;;;;;5012116;28;20315;-69
2024/01/29 02:42:09;;;;;;;4.83;4.10;;;3.50;1.00;;;;;;5004938;28;20214;-69
2024/01/29 02:44:34;;;;;;;5.40;4.10;;;3.50;1.00;;;;;;5002528;28;20593;-69
2024/01/29 02:47:00;;;;;;;4.47;4.07;;;3.50;1.00;;;;;;5003766;28;20199;-69
2024/01/29 02:49:25;;;;;;;4.60;4.20;;;3.40;1.00;;;;;;4999925;28;20607;-69
2024/01/29 02:51:51;;;;;;;4.23;3.93;;;3.50;1.00;;;;;;4998710;28;20574;-69
2024/01/29 02:54:16;;;;;;;8.50;4.10;;;3.40;1.00;;;;;;4995107;28;20196;-69
2024/01/29 02:56:42;;;;;;;4.40;4.00;;;3.40;1.00;;;;;;5000231;28;20305;-69
2024/01/29 02:59:07;;;;;;;4.60;4.20;;;3.40;1.00;;;;;;5011064;28;20201;-69
2024/01/29 03:01:33;;;;;;;4.00;3.70;;;3.40;1.00;;;;;;4996463;28;20564;-69
2024/01/29 03:03:58;;;;;;;4.00;3.70;;;3.30;1.00;;;;;;5002774;28;20172;-69
2024/01/29 03:06:25;;;;;;;5.33;3.93;;;3.30;1.00;;;;;;4994451;28;20191;-69
2024/01/29 03:08:50;;;;;;;4.17;3.77;;;3.40;1.00;;;;;;4987387;28;20271;-69
2024/01/29 03:11:16;;;;;;;4.30;3.90;;;3.30;1.00;;;;;;5001713;28;20427;-69
2024/01/29 03:13:41;;;;;;;4.13;3.60;;;3.30;1.00;;;;;;5000621;28;20183;-69
2024/01/29 03:16:07;;;;;;;4.33;3.83;;;3.30;1.00;;;;;;5007754;28;20612;-69
2024/01/29 03:18:32;;;;;;;5.47;4.87;;;3.30;1.00;;;;;;4983055;28;20176;-69
2024/01/29 03:20:59;;;;;;;11.13;9.33;;;3.30;1.00;;;;;;4993080;28;20266;-69
2024/01/29 03:23:24;;;;;;;6.00;5.40;;;3.30;1.00;;;;;;5005412;28;20186;-69
2024/01/29 03:25:49;;;;;;;6.17;4.03;;;3.30;1.00;;;;;;5005470;28;20458;-69
2024/01/29 03:28:15;;;;;;;5.30;4.17;;;3.30;1.00;;;;;;4996610;28;20556;-69
2024/01/29 03:30:41;;;;;;;6.47;3.90;;;3.30;1.00;;;;;;4984209;28;20203;-69
2024/01/29 03:33:06;;;;;;;5.00;4.10;;;3.30;1.00;;;;;;5000921;28;20194;-69
2024/01/29 03:35:32;;;;;;;4.23;3.27;;;3.30;1.00;;;;;;5000477;28;20191;-69
2024/01/29 03:37:57;;;;;;;3.97;3.63;;;3.40;1.00;;;;;;4992498;28;20593;-69
2024/01/29 03:40:23;;;;;;;3.97;3.60;;;3.30;1.00;;;;;;5002851;28;20547;-69
2024/01/29 03:42:48;;;;;;;4.07;3.67;;;3.40;1.00;;;;;;4993489;28;20241;-69
2024/01/29 03:45:14;;;;;;;3.93;3.20;;;3.40;1.00;;;;;;5002112;28;20213;-69
2024/01/29 03:47:39;;;;;;;4.13;3.30;;;3.40;1.00;;;;;;4992875;28;20175;-69
2024/01/29 03:50:05;;;;;;;5.53;3.77;;;3.40;1.00;;;;;;5011255;28;20194;-69
2024/01/29 03:52:31;;;;;;;6.17;3.80;;;3.40;1.00;;;;;;5013458;28;20183;-69
2024/01/29 03:54:56;;;;;;;5.10;4.20;;;3.40;1.00;;;;;;5013308;28;20959;-69
2024/01/29 03:57:22;;;;;;;5.40;3.37;;;3.40;1.00;;;;;;4998469;28;20203;-69
2024/01/29 03:59:48;;;;;;;4.60;4.10;;;3.30;1.00;;;;;;5000309;28;20178;-69
2024/01/29 04:02:13;;;;;;;3.50;2.77;;;3.30;1.00;;;;;;4994636;28;20179;-69
2024/01/29 04:04:39;;;;;;;3.43;3.13;;;3.30;1.00;;;;;;4993378;28;20262;-69
2024/01/29 04:07:04;;;;;;;3.73;3.30;;;3.30;1.00;;;;;;5010578;28;20815;-69
2024/01/29 04:09:30;;;;;;;3.53;3.30;;;3.30;1.00;;;;;;4991732;28;20285;-69
2024/01/29 04:11:56;;;;;;;4.13;3.17;;;3.30;1.00;;;;;;5005292;28;20176;-69
2024/01/29 04:14:21;;;;;;;3.77;2.90;;;3.30;1.00;;;;;;5000778;28;21012;-69
2024/01/29 04:16:47;;;;;;;4.30;3.60;;;3.30;1.00;;;;;;4994171;28;20604;-69
2024/01/29 04:19:13;;;;;;;4.00;3.60;;;3.30;1.00;;;;;;4993137;28;20179;-69
2024/01/29 04:21:43;;;;;;;3.70;3.40;;;3.30;1.00;;;;;;4993233;28;20442;-68
2024/01/29 04:24:11;;;;;;;7.13;4.20;;;3.30;1.00;;;;;;4999238;28;20207;-69
2024/01/29 04:26:40;;;;;;;3.37;2.93;;;3.30;1.00;;;;;;4990645;28;20563;-69
2024/01/29 04:29:08;;;;;;;4.77;4.17;;;3.30;1.00;;;;;;4977687;28;20987;-69
2024/01/29 04:31:34;;;;;;;3.40;2.93;;;3.30;1.00;;;;;;4980711;28;20510;-69
2024/01/29 04:34:00;;;;;;;3.17;2.87;;;3.30;1.00;;;;;;4973581;28;20432;-69
2024/01/29 04:36:25;;;;;;;5.30;3.80;;;3.30;1.00;;;;;;4998748;28;20445;-69
2024/01/29 04:38:51;;;;;;;4.10;3.70;;;3.30;1.00;;;;;;4992933;28;20184;-69
2024/01/29 04:41:21;;;;;;;3.77;3.43;;;3.20;1.00;;;;;;5002714;28;20180;-69
2024/01/29 04:43:47;;;;;;;3.73;2.87;;;3.20;1.00;;;;;;4980845;28;20192;-69
2024/01/29 04:46:13;;;;;;;4.10;3.60;;;3.20;1.00;;;;;;4981943;28;20464;-69
2024/01/29 04:48:39;;;;;;;5.90;4.00;;;3.20;1.00;;;;;;4992474;28;20422;-69
2024/01/29 04:51:08;;;;;;;4.07;3.77;;;3.20;1.00;;;;;;4993319;28;20214;-68
2024/01/29 04:53:34;;;;;;;4.60;3.83;;;3.20;1.00;;;;;;4999159;28;20510;-69
2024/01/29 04:56:02;;;;;;;7.63;4.27;;;3.20;1.00;;;;;;4993353;28;20504;-69
2024/01/29 04:58:28;;;;;;;5.60;5.00;;;3.20;1.00;;;;;;4997350;28;20422;-69
2024/01/29 05:00:54;;;;;;;8.33;5.77;;;3.30;1.00;;;;;;5005387;28;20426;-69
2024/01/29 05:03:19;;;;;;;7.03;6.00;;;3.30;1.00;;;;;;4992717;28;20558;-69
2024/01/29 05:05:45;;;;;;;11.70;7.50;;;3.30;1.00;;;;;;4992434;28;20199;-69
2024/01/29 05:08:10;;;;;;;6.90;6.03;;;3.20;1.00;;;;;;4991391;28;20210;-69
2024/01/29 05:10:36;;;;;;;7.70;7.00;;;3.20;1.00;;;;;;5009905;28;20218;-69
2024/01/29 05:13:02;;;;;;;10.00;6.40;;;3.10;3.60;;;;;;4990039;28;20664;-69
2024/01/29 05:15:27;;;;;;;8.33;6.93;;;3.10;16.30;;;;;;4976171;28;20183;-69
2024/01/29 05:17:53;;;;;;;8.43;7.57;;;3.10;23.30;;;;;;4992168;28;20175;-69
2024/01/29 05:20:19;;;;;;;9.43;7.37;;;3.00;28.90;;;;;;4990893;28;20481;-69
2024/01/29 05:22:45;;;;;;;8.57;7.50;;;3.00;29.40;;;;;;4989861;28;20207;-69
2024/01/29 05:25:10;;;;;;;10.77;8.63;;;2.90;39.70;;;;;;4999411;28;20311;-69
2024/01/29 05:27:36;;;;;;;10.57;9.47;;;2.90;48.40;;;;;;4993610;28;20607;-69
2024/01/29 05:30:02;;;;;;;10.57;9.40;;;2.80;49.20;;;;;;4992111;28;20207;-69
2024/01/29 05:32:27;;;;;;;12.20;8.57;;;2.80;49.00;;;;;;4995890;28;20258;-69
2024/01/29 05:34:53;;;;;;;8.40;7.47;;;2.80;52.20;;;;;;5002187;28;20172;-69
2024/01/29 05:37:18;;;;;;;10.43;8.60;;;2.80;57.60;;;;;;5008215;28;20595;-69
2024/01/29 05:39:44;;;;;;;12.80;8.33;;;2.80;52.90;;;;;;4991616;28;20175;-69
2024/01/29 05:42:09;;;;;;;11.50;8.67;;;2.80;57.10;;;;;;4999732;28;20215;-69
2024/01/29 05:44:35;;;;;;;9.53;8.37;;;2.70;61.30;;;;;;4997631;28;20644;-69
2024/01/29 05:47:00;;;;;;;13.30;8.73;;;2.80;61.00;;;;;;4994034;28;20556;-69
2024/01/29 05:49:26;;;;;;;11.50;9.00;;;2.80;47.60;;;;;;5007913;28;20234;-69
2024/01/29 05:51:51;;;;;;;10.70;9.27;;;2.70;52.40;;;;;;4988802;28;20188;-69
2024/01/29 05:54:17;;;;;;;12.07;8.23;;;2.70;63.90;;;;;;4995733;28;20191;-68
2024/01/29 05:56:45;;;;;;;7.87;7.10;;;2.70;60.90;;;;;;4983543;28;20599;-69
2024/01/29 05:59:10;;;;;;;9.27;8.37;;;2.70;66.90;;;;;;5007693;28;20667;-69
2024/01/29 06:01:36;;;;;;;10.70;9.60;;;2.60;64.70;;;;;;5001862;28;20435;-69
2024/01/29 06:04:01;;;;;;;9.83;7.87;;;2.60;76.00;;;;;;5003017;28;20258;-69
2024/01/29 06:06:27;;;;;;;11.00;9.90;;;2.60;80.40;;;;;;4992858;28;20203;-69
2024/01/29 06:08:53;;;;;;;11.00;9.70;;;2.60;91.70;;;;;;4999593;28;20243;-68
2024/01/29 06:11:19;;;;;;;12.63;10.07;;;2.50;94.40;;;;;;4989367;28;20168;-69
2024/01/29 06:13:45;;;;;;;13.67;10.40;;;2.50;96.00;;;;;;4983939;28;20559;-69
2024/01/29 06:16:11;;;;;;;12.47;9.60;;;2.40;99.10;;;;;;5003710;28;20986;-69
2024/01/29 06:18:37;;;;;;;12.63;9.07;;;2.30;99.90;;;;;;4995484;28;20685;-69
2024/01/29 06:21:03;;;;;;;11.23;9.20;;;2.30;99.90;;;;;;4995128;28;20238;-69
2024/01/29 06:23:28;;;;;;;12.80;9.37;;;2.30;99.90;;;;;;5002584;28;20430;-69
2024/01/29 06:25:54;;;;;;;11.03;9.47;;;2.20;99.90;;;;;;5008646;28;20458;-69
2024/01/29 06:28:20;;;;;;;12.30;10.30;;;2.20;99.90;;;;;;5008869;28;20177;-69
2024/01/29 06:30:45;;;;;;;11.10;9.90;;;2.20;99.90;;;;;;4992864;28;20206;-69
2024/01/29 06:33:11;;;;;;;13.23;9.63;;;2.20;99.90;;;;;;4992713;28;20277;-69
2024/01/29 06:35:36;;;;;;;14.17;10.87;;;2.10;99.90;;;;;;5002938;28;20210;-69
2024/01/29 06:38:05;;;;;;;14.33;11.73;;;2.10;99.90;;;;;;4997829;28;20187;-69
2024/01/29 06:40:30;;;;;;;15.07;10.70;;;2.10;99.90;;;;;;5007796;28;20182;-69
2024/01/29 06:42:57;;;;;;;13.67;11.07;;;2.10;99.90;;;;;;5014628;28;20433;-69
2024/01/29 06:45:23;;;;;;;11.40;10.30;;;2.00;99.90;;;;;;4995745;28;20207;-69
2024/01/29 06:47:48;;;;;;;15.20;11.87;;;2.00;99.90;;;;;;4994076;28;20566;-69
2024/01/29 06:50:14;;;;;;;13.47;10.67;;;2.00;99.90;;;;;;4992810;28;20211;-69
2024/01/29 06:52:39;;;;;;;12.40;10.23;;;2.00;99.90;;;;;;4993775;28;20180;-69
2024/01/29 06:55:05;;;;;;;13.80;11.57;;;2.00;99.90;;;;;;5000052;28;20171;-69
2024/01/29 06:57:31;;;;;;;10.97;9.87;;;2.00;99.90;;;;;;5004651;28;20217;-69
2024/01/29 06:59:57;;;;;;;10.13;9.13;;;2.10;99.90;;;;;;5011479;28;20910;-69
2024/01/29 07:02:22;;;;;;;15.17;11.80;;;2.10;99.90;;;;;;5013951;28;20414;-69
2024/01/29 07:04:48;;;;;;;11.63;10.40;;;2.10;99.90;;;;;;5014146;28;20190;-69
2024/01/29 07:07:14;;;;;;;10.90;9.90;;;2.10;99.90;;;;;;5013931;28;20278;-69
2024/01/29 07:09:40;;;;;;;14.70;11.73;;;2.10;99.90;;;;;;5014059;28;20231;-69
2024/01/29 07:12:06;;;;;;;16.67;11.20;;;2.20;99.90;;;;;;5013989;28;20301;-69
2024/01/29 07:14:31;;;;;;;13.00;11.63;;;2.20;99.90;;;;;;4995872;28;20972;-69
2024/01/29 07:16:57;;;;;;;11.27;9.83;;;2.20;99.90;;;;;;4974511;28;20199;-68
2024/01/29 07:19:25;;;;;;;13.50;10.40;;;2.30;99.90;;;;;;4978275;28;20195;-68
2024/01/29 07:21:51;;;;;;;11.20;10.07;;;2.30;99.90;;;;;;4994242;28;20175;-68
2024/01/29 07:24:17;;;;;;;13.73;10.67;;;2.30;99.90;;;;;;4994309;28;20451;-69
2024/01/29 07:26:42;;;;;;;15.57;10.60;;;2.40;99.90;;;;;;5006977;28;20555;-68
2024/01/29 07:29:08;;;;;;;11.93;9.03;;;2.60;99.90;;;;;;5006008;28;20208;-69
2024/01/29 07:31:35;;;;;;;14.43;9.70;;;2.80;99.90;;;;;;4994087;28;20226;-69
2024/01/29 07:34:01;;;;;;;11.37;10.17;;;3.00;95.50;;;;;;4993818;28;20190;-69
2024/01/29 07:36:27;;;;;;;12.40;11.20;;;3.40;67.50;;;;;;4993688;28;20447;-69
2024/01/29 07:38:52;;;;;;;11.23;9.83;;;3.60;39.40;;;;;;4990390;28;20210;-69
2024/01/29 07:41:18;;;;;;;11.97;10.67;;;3.90;29.60;;;;;;4974457;28;20510;-69
2024/01/29 07:43:44;;;;;;;11.10;10.00;;;4.20;13.00;;;;;;4958206;28;20196;-69
2024/01/29 07:46:12;;;;;;;12.53;10.10;;;4.50;1.00;;;;;;4993745;28;20474;-69
2024/01/29 07:48:38;;;;;;;12.57;10.70;;;4.60;1.00;;;;;;4977411;28;20870;-69
2024/01/29 07:51:04;;;;;;;14.03;10.60;;;4.70;1.00;;;;;;4974296;28;20503;-69
2024/01/29 07:53:29;;;;;;;12.50;10.10;;;4.60;1.00;;;;;;4974439;28;20187;-69
2024/01/29 07:55:55;;;;;;;15.50;12.00;;;4.50;1.00;;;;;;4974187;28;20188;-69
2024/01/29 07:58:20;;;;;;;13.43;10.97;;;4.50;1.00;;;;;;4986276;28;20230;-69
2024/01/29 08:00:46;;;;;;;11.47;10.33;;;4.70;1.00;;;;;;4977896;28;20207;-69
2024/01/29 08:03:12;;;;;;;12.73;10.63;;;5.00;1.00;;;;;;4974193;28;20172;-69
2024/01/29 08:05:37;;;;;;;12.10;10.27;;;5.60;1.00;;;;;;4974020;28;20604;-69
2024/01/29 08:08:03;;;;;;;10.40;9.50;;;6.30;1.00;;;;;;4983895;28;20176;-70
2024/01/29 08:10:28;;;;;;;11.80;10.60;;;6.80;1.00;;;;;;4992972;28;20584;-70
2024/01/29 08:12:54;;;;;;;11.03;9.60;;;7.70;99.90;;;;;;4992445;28;20273;-70
2024/01/29 08:15:21;;;;;;;13.33;10.50;;;8.30;99.90;;;;;;4982851;28;20297;-69
2024/01/29 08:17:46;;;;;;;11.60;9.30;;;9.00;99.90;;;;;;4973718;28;20175;-70
2024/01/29 08:20:12;;;;;;;12.43;11.23;;;9.20;99.90;;;;;;4973759;28;20419;-70
2024/01/29 08:22:37;;;;;;;12.50;10.20;;;10.10;99.90;;;;;;4973819;28;20172;-70
2024/01/29 08:25:03;;;;;;;12.00;10.80;;;10.90;99.90;;;;;;4974260;28;20259;-70
2024/01/29 08:27:29;;;;;;;11.97;10.73;;;11.70;97.90;;;;;;4972878;28;20176;-70
2024/01/29 08:29:54;;;;;;;11.50;10.23;;;12.30;94.50;;;;;;4978213;28;20199;-70
2024/01/29 08:32:21;;;;;;;12.77;11.23;;;12.60;91.80;;;;;;4992936;28;20566;-68
2024/01/29 08:34:48;;;;;;;13.87;12.50;;;12.50;92.20;;;;;;4973904;28;20602;-68
2024/01/29 08:37:13;;;;;;;16.60;12.03;;;12.30;91.00;;;;;;4973122;28;21011;-70
2024/01/29 08:39:39;;;;;;;14.03;11.30;;;12.60;91.00;;;;;;4973608;28;20423;-70
2024/01/29 08:42:06;;;;;;;11.43;10.40;;;13.10;86.80;;;;;;4973490;28;20776;-70
2024/01/29 08:44:31;;;;;;;12.03;10.87;;;12.30;88.20;;;;;;4989918;28;20195;-70
2024/01/29 08:46:57;;;;;;;12.60;11.37;;;11.60;90.70;;;;;;4973149;28;20483;-70
2024/01/29 08:49:22;;;;;;;16.50;14.93;;;10.90;92.10;;;;;;5004180;28;20202;-70
2024/01/29 08:51:48;;;;;;;14.63;11.30;;;9.90;96.10;;;;;;5012366;28;20676;-70
2024/01/29 08:54:14;;;;;;;13.90;11.20;;;9.30;98.20;;;;;;4997719;28;20253;-69
2024/01/29 08:56:41;;;;;;;11.63;10.47;;;9.30;99.90;;;;;;4992558;28;20609;-70
2024/01/29 08:59:07;;;;;;;12.27;11.07;;;9.80;99.10;;;;;;4992662;28;20426;-69
2024/01/29 09:01:33;;;;;;;11.73;10.50;;;10.20;97.70;;;;;;4978401;28;20924;-70
2024/01/29 09:03:58;;;;;;;13.27;12.03;;;10.80;96.50;;;;;;4973228;28;20463;-70
2024/01/29 09:06:24;;;;;;;12.53;10.77;;;11.00;95.70;;;;;;4972875;28;20200;-70
2024/01/29 09:08:50;;;;;;;12.03;10.73;;;11.40;94.90;;;;;;4973034;28;20176;-70
2024/01/29 09:11:16;;;;;;;13.80;11.50;;;12.30;92.00;;;;;;4973505;28;20172;-70
2024/01/29 09:13:41;;;;;;;13.40;12.10;;;13.00;89.20;;;;;;4973223;28;20169;-70
2024/01/29 09:16:08;;;;;;;50.27;27.50;;;14.10;85.20;;;;;;4981316;28;20438;-71
2024/01/29 09:18:34;;;;;;;23.73;18.77;;;15.70;74.90;;;;;;4992237;28;20183;-68
2024/01/29 09:21:00;;;;;;;23.27;18.40;;;16.30;70.60;;;;;;4983363;28;20427;-68
2024/01/29 09:23:29;;;;;;;19.60;13.30;;;17.20;64.60;;;;;;4973492;28;20185;-69
2024/01/29 09:25:55;;;;;;;15.77;14.07;;;18.30;57.60;;;;;;4984250;28;20214;-69
2024/01/29 09:28:20;;;;;;;17.33;13.03;;;19.40;52.70;;;;;;4995985;28;20920;-69
2024/01/29 09:30:45;;;;;;;13.63;12.27;;;20.00;47.70;;;;;;4989137;28;20235;-71
2024/01/29 09:33:11;;;;;;;12.13;11.03;;;18.90;47.60;;;;;;4976864;28;20228;-69
2024/01/29 09:35:36;;;;;;;14.20;11.50;;;18.20;49.30;;;;;;4981711;28;20591;-69
2024/01/29 09:38:02;;;;;;;15.87;14.37;;;19.30;47.50;;;;;;4988923;28;20168;-69
2024/01/29 09:40:28;;;;;;;15.50;14.10;;;20.30;45.20;;;;;;4977126;28;20185;-69
2024/01/29 09:42:57;;;;;;;12.27;11.20;;;20.90;43.70;;;;;;4976659;28;20184;-69
2024/01/29 09:45:23;;;;;;;11.63;10.63;;;20.30;41.30;;;;;;4976890;28;20189;-69
2024/01/29 09:47:51;;;;;;;13.30;10.80;;;18.80;43.00;;;;;;4976460;28;21094;-68
2024/01/29 09:50:17;;;;;;;11.80;10.90;;;19.20;43.30;;;;;;4993635;28;20519;-68
2024/01/29 09:52:44;;;;;;;12.07;9.50;;;20.40;42.30;;;;;;4996053;28;20454;-70
2024/01/29 09:55:11;;;;;;;11.07;10.07;;;21.50;40.40;;;;;;4996090;28;20421;-70
2024/01/29 09:57:38;;;;;;;11.27;10.20;;;21.20;37.70;;;;;;4995526;28;20909;-68
2024/01/29 10:00:06;;;;;;;12.60;9.47;;;21.20;38.40;;;;;;4980742;28;20431;-69
2024/01/29 10:02:36;;;;;;;10.33;8.90;;;22.20;37.00;;;;;;4999621;28;20429;-68
2024/01/29 10:05:05;;;;;;;10.93;9.80;;;22.40;35.20;;;;;;5015498;28;20425;-67
2024/01/29 10:07:31;;;;;;;10.73;9.77;;;22.80;34.50;;;;;;5014955;28;20422;-68
2024/01/29 10:09:57;;;;;;;11.03;10.03;;;23.30;33.70;;;;;;4998011;28;20975;-68
2024/01/29 10:12:23;;;;;;;10.70;9.80;;;23.90;32.60;;;;;;4975914;28;20169;-68
2024/01/29 10:14:49;;;;;;;11.00;9.90;;;24.10;31.50;;;;;;4976288;28;20172;-68
2024/01/29 10:17:14;;;;;;;10.30;9.40;;;23.80;31.40;;;;;;4976089;28;20855;-68
2024/01/29 10:19:43;;;;;;;12.20;9.00;;;24.00;30.80;;;;;;4976015;28;20187;-68
2024/01/29 10:22:12;;;;;;;9.70;8.70;;;23.80;30.30;;;;;;4975952;28;20173;-68
2024/01/29 10:24:38;;;;;;;10.23;9.20;;;24.40;30.00;;;;;;4991987;28;20983;-69
2024/01/29 10:27:08;;;;;;;9.00;8.27;;;25.10;29.30;;;;;;4983005;28;20467;-69
2024/01/29 10:29:49;;;;;;;10.37;9.47;;;25.20;28.50;;;;;;4975773;28;20215;-69
2024/01/29 10:32:15;;;;;;;9.43;8.30;;;25.30;28.40;;;;;;4987231;28;20873;-69
2024/01/29 10:34:41;;;;;;;9.40;8.27;;;25.40;28.20;;;;;;4994793;28;20494;-68
2024/01/29 10:37:06;;;;;;;9.10;8.20;;;25.60;27.50;;;;;;4982471;28;20227;-68
2024/01/29 10:39:34;;;;;;;8.63;7.73;;;26.20;27.00;;;;;;4975511;28;20721;-69
2024/01/29 10:42:01;;;;;;;13.03;11.73;;;26.60;26.10;;;;;;4975549;28;20179;-69
2024/01/29 10:44:31;;;;;;;9.20;8.40;;;26.60;25.70;;;;;;4975575;28;20420;-69
2024/01/29 10:46:59;;;;;;;11.03;8.57;;;27.50;25.40;;;;;;4984113;28;20442;-69
2024/01/29 10:49:26;;;;;;;9.10;8.23;;;28.10;24.60;;;;;;4994984;28;20418;-69
2024/01/29 10:51:53;;;;;;;9.20;8.40;;;28.70;23.90;;;;;;4994867;28;20427;-69
2024/01/29 10:54:20;;;;;;;9.30;8.43;;;28.90;23.50;;;;;;4975182;28;20423;-70
2024/01/29 10:56:46;;;;;;;9.60;8.70;;;29.20;23.10;;;;;;4993660;28;20481;-68
2024/01/29 10:59:13;;;;;;;9.43;8.03;;;29.20;22.70;;;;;;4994578;28;20458;-68
2024/01/29 11:01:40;;;;;;;9.83;8.77;;;28.80;22.70;;;;;;4991127;28;20501;-68
2024/01/29 11:04:08;;;;;;;10.77;9.17;;;29.20;22.50;;;;;;4994669;28;20445;-70
2024/01/29 11:06:48;;;;;;;11.20;7.87;;;29.30;22.00;;;;;;4988530;28;20488;-69
2024/01/29 11:09:17;;;;;;;8.90;8.20;;;29.50;21.80;;;;;;4979613;28;20836;-68
2024/01/29 11:11:46;;;;;;;11.20;10.30;;;30.20;21.50;;;;;;4989134;28;20429;-70
2024/01/29 11:14:12;;;;;;;11.47;10.53;;;30.50;21.50;;;;;;4973448;28;20431;-68
2024/01/29 11:16:37;;;;;;;9.80;8.63;;;30.60;21.50;;;;;;4974983;28;20469;-67
2024/01/29 11:19:03;;;;;;;8.73;7.93;;;28.60;21.30;;;;;;4975296;28;20208;-68
2024/01/29 11:21:29;;;;;;;10.07;7.67;;;28.40;22.10;;;;;;4994331;28;20238;-69
2024/01/29 11:23:56;;;;;;;8.83;8.13;;;29.40;21.40;;;;;;4986840;28;20263;-68
2024/01/29 11:26:24;;;;;;;8.83;8.23;;;28.00;21.60;;;;;;4991461;28;20212;-70
2024/01/29 11:28:57;;;;;;;9.40;8.53;;;27.20;22.30;;;;;;5004966;28;20783;-69
2024/01/29 11:31:23;;;;;;;9.33;8.63;;;27.20;22.40;;;;;;4993419;28;21164;-69
2024/01/29 11:33:49;;;;;;;9.00;8.20;;;27.40;21.90;;;;;;4993758;28;20470;-69
2024/01/29 11:36:16;;;;;;;10.27;9.37;;;26.60;22.80;;;;;;4991015;28;20450;-68
2024/01/29 11:38:42;;;;;;;10.80;9.80;;;26.70;23.20;;;;;;4992909;28;20586;-69
2024/01/29 11:41:07;;;;;;;14.30;10.33;;;25.70;23.70;;;;;;4993771;28;20458;-69
2024/01/29 11:43:33;;;;;;;12.43;10.93;;;24.90;24.10;;;;;;4993858;28;20178;-69
2024/01/29 11:45:59;;;;;;;12.93;11.63;;;24.10;24.90;;;;;;4993157;28;20188;-69
2024/01/29 11:48:24;;;;;;;12.03;10.93;;;23.60;25.70;;;;;;4973833;28;20172;-69
2024/01/29 11:50:56;;;;;;;11.90;10.77;;;24.60;25.20;;;;;;4974262;28;20234;-69
2024/01/29 11:53:27;;;;;;;11.40;10.30;;;23.90;26.10;;;;;;4973832;28;20204;-69
2024/01/29 11:55:53;;;;;;;11.77;10.67;;;24.80;25.70;;;;;;4974189;28;20435;-69
2024/01/29 11:58:21;;;;;;;10.53;9.67;;;26.20;24.20;;;;;;4991426;28;20434;-69
2024/01/29 12:00:49;;;;;;;11.17;10.07;;;24.90;24.50;;;;;;4993187;28;20520;-69
2024/01/29 12:03:17;;;;;;;10.60;9.70;;;25.10;24.70;;;;;;4976894;28;20491;-69
2024/01/29 12:05:44;;;;;;;12.07;10.13;;;26.00;24.00;;;;;;4985403;28;20469;-69
2024/01/29 12:08:14;;;;;;;10.07;9.03;;;26.90;23.20;;;;;;4992871;28;20909;-69
2024/01/29 12:10:41;;;;;;;10.10;9.23;;;26.80;23.30;;;;;;4992970;28;20429;-69
2024/01/29 12:13:17;;;;;;;11.97;9.60;;;26.60;22.50;;;;;;4992847;28;20432;-69
2024/01/29 12:15:44;;;;;;;10.33;9.53;;;26.50;22.50;;;;;;4980785;28;20501;-69
2024/01/29 12:18:20;;;;;;;10.77;10.00;;;26.40;22.60;;;;;;4987077;28;20518;-69
2024/01/29 12:20:49;;;;;;;10.17;9.37;;;26.30;22.90;;;;;;4993111;28;20465;-69
2024/01/29 12:23:19;;;;;;;10.83;9.93;;;27.30;22.90;;;;;;4992667;28;20910;-68
2024/01/29 12:25:48;;;;;;;7.77;7.07;;;26.60;22.50;;;;;;4992018;28;20476;-68
2024/01/29 12:28:15;;;;;;;12.43;8.93;;;25.30;23.10;;;;;;4992498;28;20924;-68
2024/01/29 12:30:42;;;;;;;9.53;8.80;;;25.80;23.50;;;;;;4992984;28;20433;-68
2024/01/29 12:33:07;;;;;;;11.00;9.57;;;25.40;23.70;;;;;;4992413;28;20439;-68
2024/01/29 12:35:36;;;;;;;8.37;7.77;;;25.10;23.90;;;;;;4992760;28;20442;-68
2024/01/29 12:38:06;;;;;;;10.47;9.57;;;26.20;23.50;;;;;;4992442;28;20175;-68
2024/01/29 12:40:32;;;;;;;11.30;8.47;;;26.80;22.90;;;;;;4975181;28;20489;-69
2024/01/29 12:43:02;;;;;;;9.10;8.17;;;26.40;22.70;;;;;;4982391;28;20434;-69